Aérodrome :
LOGIN :

S'inscrire | Disclaimer

   EN    FR    IT 

 










Légende :    VFR   VFR Marginal   IFR   IFR Intensif   IFR Très Intensif
Visi : 
Plafond : 
>= 8 km
>= 3000ft
5 à 8 km
1000 à 3000 ft
1500m à 5 km
500 à 1000 ft
800 à 1500m
200 à 500 ft
< 800m
< 200 ft
Symboles :   Orages  Brouillard  Fortes neiges  Fortes précipitations  Vent > 20 kt
SIGMETs :   Divers  Orages  Givrage  Turbulence  Onde Orograph.  Cendres Volcan.







- Altitude de l'aérodrome : 59 ft
- Code IATA : TSF


LIPH - Treviso

DERNIER METAR :
  • 141720Z 27004KT 250V310 9999 FEW030 SCT050 25/20 Q1011

METARs EXPIRÉS :
  • 141650Z 25004KT 9999 -RA FEW030 SCT050 24/20 Q1011
  • 141620Z 24005KT 9999 -RA FEW025CB SCT050 25/20 Q1011 RETS
  • 141550Z 18004KT 9999 -TSRA FEW025CB SCT050 25/21 Q1011
  • 141520Z 11003KT 030V160 9999 TS FEW025CB 28/20 Q1010
  • 141450Z VRB02KT 9999 FEW030 29/20 Q1010

TAF TAF LIPH
Valide du 14 à 12h jusqu'au 15 à 12h UTC


141100Z 1412/1512 VRB05KT 9999 SCT030
TEMPO 1412/1421 TSRA
Pas de NOTAMs connus pour ce terrain.
2 SIGMETs publiés pour la FIR Milano (LIMM) :
 
Orages noyés dans la masse
LIMM SIGMET 4 VALID 141410/141810 LIIP
LIMM MILANO FIR EMBD TS FCST SE OF LINE N4405 E00658 - N4644 E01247 TOP FL420 STNR NC=
Turbulence forte
LIMM SIGMET 3 VALID 141400/141800 LIIP
LIMM MILANO FIR SEV TURB FCST W OF LINE N4658 E01038 - N4327 E01024 FL240/380 MOV E NC=



MET'MAP, la Météo Aéronautique d'un coup d'oeil ! - Copyright ORBIFLY Décembre 2007 - Disclaimer

ORBIFLY MET'MAP TEAM :

Programmation & Développement : Alexandra Zaïnal
Conception & Développement : Baudouin d'Aumeries
Co-Programmation & Développement : Marc-Olivier Méhu
Soutien technique & logistique : Manuel Goepfert

Contact : metmap@orbifly.com




SOURCES & CREDITS :

   NOAA